Time;durP1;ratioP1;P1;durP2;ratioP2;P2;SDS_P1;SDS_P2;PMS_P1;PMS_P2;Temp;Humidity;BMP_temperature;BMP_pressure;BME280_temperature;BME280_humidity;BME280_pressure;Samples;Min_cycle;Max_cycle;Signal;HPM_P1;HPM_P2
2021/09/01 00:00:08;;;;;;;0.13;0.13;;;11.70;99.90;;;;;;5088458;28;20207;-73
2021/09/01 00:02:34;;;;;;;0.57;0.57;;;11.70;99.90;;;;;;5088238;28;20191;-73
2021/09/01 00:04:59;;;;;;;0.10;0.10;;;11.80;99.90;;;;;;5088200;28;20171;-73
2021/09/01 00:07:25;;;;;;;0.20;0.20;;;11.80;99.90;;;;;;5070160;28;20168;-73
2021/09/01 00:09:51;;;;;;;1.95;0.50;;;11.80;99.90;;;;;;5070214;28;20328;-73
2021/09/01 00:12:17;;;;;;;0.90;0.90;;;11.90;99.90;;;;;;5069941;28;20175;-73
2021/09/01 00:14:43;;;;;;;0.20;0.20;;;11.80;99.90;;;;;;5070190;28;20187;-73
2021/09/01 00:17:09;;;;;;;0.40;0.40;;;11.80;99.90;;;;;;5088535;28;20570;-73
2021/09/01 00:19:35;;;;;;;0.10;0.10;;;11.70;99.90;;;;;;5088305;28;20586;-73
2021/09/01 00:22:01;;;;;;;0.10;0.10;;;11.70;99.90;;;;;;5088411;28;20160;-73
2021/09/01 00:24:27;;;;;;;0.50;0.50;;;11.70;99.90;;;;;;5088440;28;20585;-73
2021/09/01 00:26:53;;;;;;;0.60;0.60;;;11.70;99.90;;;;;;5088096;28;20238;-73
2021/09/01 00:29:19;;;;;;;0.20;0.20;;;11.70;99.90;;;;;;5069695;28;20191;-73
2021/09/01 00:31:45;;;;;;;0.90;0.90;;;11.70;99.90;;;;;;5069782;28;20566;-72
2021/09/01 00:34:11;;;;;;;0.03;0.03;;;11.70;99.90;;;;;;5091723;28;20152;-73
2021/09/01 00:36:36;;;;;;;0.50;0.50;;;11.50;99.90;;;;;;5092064;28;20160;-73
2021/09/01 00:39:03;;;;;;;0.25;0.25;;;11.60;99.90;;;;;;5091867;28;20171;-73
2021/09/01 00:41:30;;;;;;;0.10;0.10;;;11.50;99.90;;;;;;5092085;28;20159;-73
2021/09/01 00:44:16;;;;;;;2.05;0.85;;;11.40;99.90;;;;;;5074145;28;20229;-72
2021/09/01 00:46:43;;;;;;;0.65;0.65;;;11.40;99.90;;;;;;5092236;28;20259;-72
2021/09/01 00:49:10;;;;;;;0.73;0.28;;;11.30;99.90;;;;;;5092157;28;20219;-72
2021/09/01 00:51:36;;;;;;;0.10;0.10;;;11.40;99.90;;;;;;5069406;28;20307;-73
2021/09/01 00:54:03;;;;;;;0.25;0.25;;;11.30;99.90;;;;;;5071605;28;20196;-74
2021/09/01 00:56:29;;;;;;;0.60;0.25;;;11.20;99.90;;;;;;5071510;28;20168;-74
2021/09/01 00:58:55;;;;;;;0.35;0.25;;;11.40;99.90;;;;;;5071404;28;20157;-72
2021/09/01 01:01:21;;;;;;;0.10;0.10;;;11.50;99.90;;;;;;5071462;28;20193;-72
2021/09/01 01:03:51;;;;;;;0.05;0.05;;;11.40;99.90;;;;;;5053668;28;20273;-74
2021/09/01 01:06:20;;;;;;;0.17;0.17;;;11.30;99.90;;;;;;5071340;28;20161;-72
2021/09/01 01:08:48;;;;;;;0.30;0.30;;;11.40;99.90;;;;;;5071378;28;20161;-72
2021/09/01 01:11:14;;;;;;;0.75;0.75;;;11.30;99.90;;;;;;5053442;28;20161;-72
2021/09/01 01:13:47;;;;;;;0.32;0.32;;;11.30;99.90;;;;;;5071439;28;20216;-72
2021/09/01 01:16:15;;;;;;;0.30;0.30;;;11.20;99.90;;;;;;5071495;28;20636;-73
2021/09/01 01:18:45;;;;;;;0.10;0.10;;;11.30;99.90;;;;;;5071282;28;20164;-72
2021/09/01 01:21:15;;;;;;;0.10;0.10;;;11.30;99.90;;;;;;5071114;28;20165;-72
2021/09/01 01:23:41;;;;;;;0.88;0.88;;;11.30;99.90;;;;;;5070923;28;20263;-72
2021/09/01 01:26:08;;;;;;;0.20;0.20;;;11.30;99.90;;;;;;5070792;28;20157;-73
2021/09/01 01:28:34;;;;;;;0.80;0.68;;;11.40;99.90;;;;;;5052994;28;20189;-72
2021/09/01 01:30:59;;;;;;;0.10;0.10;;;11.40;99.90;;;;;;5106854;28;20246;-73
2021/09/01 01:33:25;;;;;;;0.75;0.75;;;11.50;99.90;;;;;;5111440;28;20191;-72
2021/09/01 01:35:51;;;;;;;1.00;1.00;;;11.60;99.90;;;;;;5093080;28;20171;-72
2021/09/01 01:38:20;;;;;;;0.95;0.95;;;11.70;99.90;;;;;;5111531;28;20167;-72
2021/09/01 01:40:47;;;;;;;0.20;0.20;;;11.70;99.90;;;;;;5093016;28;20722;-73
2021/09/01 01:43:14;;;;;;;0.20;0.20;;;11.60;99.90;;;;;;5111218;28;20194;-73
2021/09/01 01:45:45;;;;;;;0.10;0.10;;;11.50;99.90;;;;;;5110183;28;20167;-72
2021/09/01 01:48:14;;;;;;;0.55;0.55;;;11.50;99.90;;;;;;5092535;28;20172;-72
2021/09/01 01:50:42;;;;;;;0.57;0.35;;;11.50;99.90;;;;;;5110704;28;20193;-72
2021/09/01 01:53:09;;;;;;;2.92;0.80;;;11.30;99.90;;;;;;5127926;28;20627;-73
2021/09/01 01:55:35;;;;;;;0.15;0.15;;;11.40;99.90;;;;;;5112860;28;20171;-73
2021/09/01 01:58:01;;;;;;;0.30;0.30;;;11.40;99.90;;;;;;5131241;28;20166;-72
2021/09/01 02:00:27;;;;;;;0.10;0.10;;;11.30;99.90;;;;;;5131101;28;20182;-72
2021/09/01 02:02:53;;;;;;;0.32;0.32;;;11.40;99.90;;;;;;5131243;28;20190;-73
2021/09/01 02:05:19;;;;;;;1.38;1.27;;;11.40;99.90;;;;;;5112967;28;20178;-72
2021/09/01 02:07:45;;;;;;;0.10;0.10;;;11.30;99.90;;;;;;5112887;28;20167;-72
2021/09/01 02:10:12;;;;;;;0.10;0.10;;;11.30;99.90;;;;;;5112822;28;20205;-73
2021/09/01 02:12:40;;;;;;;0.10;0.10;;;11.20;99.90;;;;;;5112929;28;20209;-75
2021/09/01 02:15:08;;;;;;;2.22;2.03;;;11.20;99.90;;;;;;5130982;28;20151;-74
2021/09/01 02:17:35;;;;;;;0.47;0.47;;;11.20;99.90;;;;;;5112382;28;20195;-73
2021/09/01 02:20:02;;;;;;;0.10;0.10;;;11.20;99.90;;;;;;5112254;28;20194;-73
2021/09/01 02:22:28;;;;;;;0.20;0.20;;;11.20;99.90;;;;;;5130593;28;20213;-74
2021/09/01 02:24:54;;;;;;;0.63;0.28;;;11.30;99.90;;;;;;5130802;28;20155;-73
2021/09/01 02:27:20;;;;;;;0.45;0.45;;;11.30;99.90;;;;;;5112270;28;20170;-71
2021/09/01 02:29:46;;;;;;;0.80;0.80;;;11.10;99.90;;;;;;5130675;28;20245;-73
2021/09/01 02:32:12;;;;;;;1.20;0.63;;;11.10;99.90;;;;;;5112556;28;20175;-75
2021/09/01 02:34:38;;;;;;;0.30;0.30;;;11.20;99.90;;;;;;5130791;28;20163;-73
2021/09/01 02:37:04;;;;;;;0.45;0.45;;;11.20;99.90;;;;;;5112363;28;20170;-74
2021/09/01 02:39:30;;;;;;;1.77;0.75;;;11.10;99.90;;;;;;5112217;28;20224;-72
2021/09/01 02:41:56;;;;;;;0.20;0.20;;;10.90;99.90;;;;;;5130820;28;20163;-74
2021/09/01 02:44:22;;;;;;;0.13;0.13;;;11.00;99.90;;;;;;5111996;28;20183;-74
2021/09/01 02:46:49;;;;;;;0.00;0.00;;;10.80;99.90;;;;;;5130273;28;20229;-74
2021/09/01 02:49:15;;;;;;;0.35;0.35;;;10.90;99.90;;;;;;5111504;28;20191;-73
2021/09/01 02:51:40;;;;;;;0.35;0.35;;;10.80;99.90;;;;;;5124739;28;20219;-72
2021/09/01 02:54:07;;;;;;;1.00;1.00;;;10.70;99.90;;;;;;5109699;28;20176;-74
2021/09/01 02:56:33;;;;;;;0.20;0.20;;;10.80;99.90;;;;;;5090982;28;20266;-73
2021/09/01 02:58:59;;;;;;;0.30;0.30;;;10.70;99.90;;;;;;5109760;28;20168;-73
2021/09/01 03:01:25;;;;;;;0.85;0.85;;;10.90;99.90;;;;;;5109483;28;20152;-73
2021/09/01 03:03:50;;;;;;;0.75;0.57;;;11.00;99.90;;;;;;5109604;28;20191;-74
2021/09/01 03:06:16;;;;;;;0.30;0.30;;;10.90;99.90;;;;;;5091281;28;20179;-75
2021/09/01 03:08:42;;;;;;;0.47;0.47;;;10.90;99.90;;;;;;5109262;28;20219;-74
2021/09/01 03:11:08;;;;;;;0.32;0.32;;;10.80;99.90;;;;;;5108971;28;20636;-72
2021/09/01 03:13:34;;;;;;;0.10;0.10;;;10.80;99.90;;;;;;5090863;28;20239;-75
2021/09/01 03:16:01;;;;;;;0.10;0.10;;;10.90;99.90;;;;;;5109316;28;20166;-73
2021/09/01 03:18:27;;;;;;;0.15;0.15;;;10.80;99.90;;;;;;5108840;28;20644;-73
2021/09/01 03:20:53;;;;;;;0.10;0.10;;;10.60;99.90;;;;;;5089899;28;20198;-73
2021/09/01 03:23:19;;;;;;;0.10;0.10;;;10.60;99.90;;;;;;5109211;28;20276;-73
2021/09/01 03:25:45;;;;;;;0.22;0.22;;;10.60;99.90;;;;;;5091085;28;20555;-73
2021/09/01 03:28:12;;;;;;;0.30;0.30;;;10.60;99.90;;;;;;5109264;28;20167;-73
2021/09/01 03:30:37;;;;;;;0.60;0.60;;;10.60;99.90;;;;;;5108734;28;20617;-73
2021/09/01 03:33:03;;;;;;;0.20;0.20;;;10.60;99.90;;;;;;5108604;28;20166;-73
2021/09/01 03:35:29;;;;;;;0.10;0.10;;;10.60;99.90;;;;;;5108889;28;20159;-73
2021/09/01 03:37:55;;;;;;;0.10;0.10;;;10.70;99.90;;;;;;5108781;28;20192;-74
2021/09/01 03:40:21;;;;;;;0.50;0.50;;;10.60;99.90;;;;;;5090508;28;20199;-72
2021/09/01 03:42:47;;;;;;;0.30;0.30;;;10.50;99.90;;;;;;5108787;28;20179;-72
2021/09/01 03:45:14;;;;;;;0.30;0.30;;;10.60;99.90;;;;;;5108941;28;20226;-72
2021/09/01 03:47:40;;;;;;;0.52;0.52;;;10.50;99.90;;;;;;5090659;28;20175;-75
2021/09/01 03:50:09;;;;;;;0.13;0.13;;;10.40;99.90;;;;;;5108548;28;20191;-73
2021/09/01 03:52:35;;;;;;;0.93;0.85;;;10.40;99.90;;;;;;5103051;28;20234;-73
2021/09/01 03:55:07;;;;;;;0.35;0.35;;;10.40;99.90;;;;;;5110941;28;20177;-73
2021/09/01 03:57:33;;;;;;;0.10;0.10;;;10.40;99.90;;;;;;5129406;28;20151;-73
2021/09/01 03:59:59;;;;;;;0.10;0.10;;;10.40;99.90;;;;;;5129086;28;20194;-73
2021/09/01 04:02:25;;;;;;;0.17;0.17;;;10.40;99.90;;;;;;5129262;28;20182;-72
2021/09/01 04:04:51;;;;;;;0.65;0.65;;;10.40;99.90;;;;;;5110758;28;20176;-73
2021/09/01 04:07:17;;;;;;;1.08;0.47;;;10.30;99.90;;;;;;5110099;28;20174;-75
2021/09/01 04:09:43;;;;;;;0.00;0.00;;;10.40;99.90;;;;;;5128867;28;20193;-72
2021/09/01 04:12:09;;;;;;;0.20;0.20;;;10.30;99.90;;;;;;5128775;28;20155;-72
2021/09/01 04:14:35;;;;;;;0.45;0.45;;;10.40;99.90;;;;;;5128829;28;20155;-74
2021/09/01 04:17:01;;;;;;;0.75;0.75;;;10.40;99.90;;;;;;5129202;28;20161;-74
2021/09/01 04:19:27;;;;;;;0.15;0.15;;;10.60;99.90;;;;;;5110375;28;20190;-72
2021/09/01 04:21:53;;;;;;;0.20;0.20;;;10.50;99.90;;;;;;5128919;28;20226;-74
2021/09/01 04:24:18;;;;;;;0.20;0.20;;;10.60;99.90;;;;;;5128889;28;20162;-72
2021/09/01 04:26:45;;;;;;;0.50;0.38;;;10.50;99.90;;;;;;5110352;28;20619;-74
2021/09/01 04:29:10;;;;;;;0.10;0.10;;;10.50;99.90;;;;;;5110321;28;20182;-74
2021/09/01 04:31:36;;;;;;;0.15;0.15;;;10.50;99.90;;;;;;5128952;28;20162;-74
2021/09/01 04:34:03;;;;;;;0.10;0.10;;;10.50;99.90;;;;;;5128829;28;20162;-74
2021/09/01 04:36:29;;;;;;;0.17;0.17;;;10.60;99.90;;;;;;5110300;28;20198;-74
2021/09/01 04:38:54;;;;;;;0.30;0.30;;;10.60;99.90;;;;;;5128890;28;20166;-73
2021/09/01 04:41:20;;;;;;;0.15;0.15;;;10.60;99.90;;;;;;5110508;28;20175;-73
2021/09/01 04:43:46;;;;;;;0.10;0.10;;;10.80;99.90;;;;;;5128861;28;20213;-74
2021/09/01 04:46:12;;;;;;;0.17;0.17;;;10.80;99.90;;;;;;5110279;28;20186;-73
2021/09/01 04:48:38;;;;;;;0.60;0.60;;;11.00;99.90;;;;;;5128661;28;20206;-73
2021/09/01 04:51:04;;;;;;;0.17;0.17;;;11.10;99.90;;;;;;5128302;28;20296;-73
2021/09/01 04:53:29;;;;;;;0.35;0.35;;;11.20;99.90;;;;;;5109959;28;20226;-73
2021/09/01 04:55:55;;;;;;;0.77;0.75;;;11.30;99.90;;;;;;5128414;28;20159;-73
2021/09/01 04:58:21;;;;;;;0.73;0.55;;;11.50;99.90;;;;;;5128546;28;20171;-72
2021/09/01 05:00:47;;;;;;;0.15;0.15;;;11.70;99.90;;;;;;5110202;28;20245;-73
2021/09/01 05:03:13;;;;;;;0.32;0.32;;;11.80;99.90;;;;;;5128410;28;20217;-73
2021/09/01 05:05:39;;;;;;;15.43;2.50;;;12.00;99.90;;;;;;5110142;28;20162;-73
2021/09/01 05:08:04;;;;;;;0.32;0.32;;;12.20;99.90;;;;;;5110043;28;20163;-73
2021/09/01 05:10:31;;;;;;;0.10;0.10;;;12.30;99.90;;;;;;5128475;28;20186;-73
2021/09/01 05:12:57;;;;;;;0.45;0.45;;;12.60;99.90;;;;;;5109996;28;20182;-73
2021/09/01 05:15:23;;;;;;;2.47;1.00;;;13.10;99.90;;;;;;5110199;28;20544;-73
2021/09/01 05:17:49;;;;;;;1.15;1.15;;;13.60;99.90;;;;;;5128611;28;20162;-73
2021/09/01 05:20:16;;;;;;;0.55;0.55;;;14.00;99.90;;;;;;5132153;28;20195;-75
2021/09/01 05:22:48;;;;;;;0.77;0.77;;;14.00;99.90;;;;;;5113859;28;20686;-72
2021/09/01 05:25:18;;;;;;;8.88;1.08;;;14.40;99.90;;;;;;5132397;28;20173;-75
2021/09/01 05:27:50;;;;;;;0.10;0.10;;;14.30;99.90;;;;;;5132419;28;20165;-72
2021/09/01 05:30:18;;;;;;;0.43;0.40;;;14.10;99.90;;;;;;5132334;28;20182;-74
2021/09/01 05:32:47;;;;;;;0.10;0.10;;;13.90;99.90;;;;;;5131843;28;20169;-73
2021/09/01 05:35:14;;;;;;;1.13;1.05;;;13.60;99.90;;;;;;5131907;28;20159;-73
2021/09/01 05:37:42;;;;;;;0.22;0.22;;;13.50;99.90;;;;;;5113434;28;20167;-74
2021/09/01 05:40:10;;;;;;;0.20;0.20;;;13.60;99.90;;;;;;5131302;28;20254;-73
2021/09/01 05:42:36;;;;;;;1.35;0.85;;;13.60;99.90;;;;;;5131584;28;20182;-73
2021/09/01 05:45:04;;;;;;;2.88;0.70;;;13.30;99.90;;;;;;5113058;28;20228;-73
2021/09/01 05:47:30;;;;;;;2.72;1.70;;;13.80;99.90;;;;;;5131811;28;20250;-74
2021/09/01 05:49:58;;;;;;;4.70;0.52;;;15.10;99.90;;;;;;5131441;28;20185;-72
2021/09/01 05:52:26;;;;;;;2.60;1.33;;;14.50;99.90;;;;;;5112905;28;20230;-72
2021/09/01 05:54:55;;;;;;;1.73;1.63;;;14.40;99.90;;;;;;5131410;28;20181;-74
2021/09/01 05:57:43;;;;;;;0.43;0.40;;;14.00;99.90;;;;;;5131401;28;20214;-72
2021/09/01 06:00:16;;;;;;;0.25;0.22;;;14.50;99.90;;;;;;5131283;28;20193;-74
2021/09/01 06:02:52;;;;;;;0.20;0.20;;;14.80;99.90;;;;;;5131288;28;20186;-72
2021/09/01 06:05:21;;;;;;;0.95;0.95;;;14.80;99.90;;;;;;5131389;28;20161;-72
2021/09/01 06:07:51;;;;;;;0.57;0.45;;;15.80;99.90;;;;;;5112760;28;20177;-72
2021/09/01 06:10:22;;;;;;;1.02;1.02;;;16.40;99.90;;;;;;5112678;28;20240;-72
2021/09/01 06:12:54;;;;;;;0.38;0.38;;;17.40;99.90;;;;;;5130686;28;20155;-72
2021/09/01 06:15:21;;;;;;;0.77;0.77;;;16.60;99.90;;;;;;5130677;28;20178;-72
2021/09/01 06:17:47;;;;;;;0.30;0.30;;;16.50;99.90;;;;;;5130791;28;20186;-72
2021/09/01 06:20:13;;;;;;;0.80;0.80;;;16.10;99.90;;;;;;5112257;28;20198;-74
2021/09/01 06:22:39;;;;;;;0.20;0.20;;;16.40;99.90;;;;;;5130484;28;20183;-75
2021/09/01 06:25:07;;;;;;;0.45;0.43;;;16.30;99.90;;;;;;5130748;28;20155;-76
2021/09/01 06:27:33;;;;;;;1.08;0.38;;;16.80;99.90;;;;;;5130863;28;20162;-75
2021/09/01 06:29:59;;;;;;;0.22;0.22;;;16.80;99.90;;;;;;5130039;28;20187;-75
2021/09/01 06:32:25;;;;;;;0.40;0.40;;;17.00;99.90;;;;;;5112533;28;20167;-76
2021/09/01 06:34:51;;;;;;;1.42;1.38;;;17.60;99.90;;;;;;5113322;28;20171;-75
2021/09/01 06:37:17;;;;;;;1.00;0.73;;;18.00;99.90;;;;;;5130904;28;20214;-75
2021/09/01 06:39:43;;;;;;;0.50;0.50;;;18.30;99.90;;;;;;5112309;28;20225;-75
2021/09/01 06:42:09;;;;;;;0.98;0.55;;;18.80;99.90;;;;;;5130670;28;20155;-76
2021/09/01 06:44:35;;;;;;;1.85;0.70;;;18.40;99.90;;;;;;5130604;28;20155;-75
2021/09/01 06:47:01;;;;;;;5.65;0.77;;;18.20;99.90;;;;;;5130667;28;20158;-75
2021/09/01 06:49:26;;;;;;;0.40;0.40;;;18.10;99.90;;;;;;5112216;28;20263;-75
2021/09/01 06:51:52;;;;;;;0.63;0.63;;;18.10;99.90;;;;;;5130118;28;20710;-76
2021/09/01 06:54:18;;;;;;;0.50;0.50;;;18.40;99.90;;;;;;5112405;28;20178;-76
2021/09/01 06:56:47;;;;;;;0.20;0.20;;;18.70;99.90;;;;;;5131759;28;20167;-76
2021/09/01 06:59:13;;;;;;;18.85;1.55;;;18.40;99.90;;;;;;5100256;28;20197;-75
2021/09/01 07:01:39;;;;;;;0.30;0.30;;;18.60;99.90;;;;;;5075347;28;20278;-75
2021/09/01 07:04:05;;;;;;;0.77;0.70;;;18.80;99.90;;;;;;5081514;28;20211;-75
2021/09/01 07:06:31;;;;;;;2.88;1.05;;;19.20;99.90;;;;;;5090370;28;20152;-76
2021/09/01 07:08:56;;;;;;;0.90;0.85;;;19.40;99.90;;;;;;5090510;28;20152;-76
2021/09/01 07:11:22;;;;;;;0.25;0.25;;;19.00;99.90;;;;;;5089592;28;20239;-76
2021/09/01 07:13:48;;;;;;;1.08;0.90;;;19.60;99.90;;;;;;5092721;28;20182;-75
2021/09/01 07:16:14;;;;;;;0.30;0.30;;;19.50;99.90;;;;;;5110571;28;20183;-76
2021/09/01 07:18:41;;;;;;;1.33;0.65;;;19.30;99.90;;;;;;5092270;28;20170;-75
2021/09/01 07:21:07;;;;;;;1.40;0.90;;;19.80;99.90;;;;;;5083847;28;20227;-75
2021/09/01 07:23:33;;;;;;;0.55;0.55;;;20.80;99.90;;;;;;5071407;28;20203;-74
2021/09/01 07:26:00;;;;;;;0.80;0.80;;;19.80;99.90;;;;;;5089234;28;20240;-74
2021/09/01 07:28:27;;;;;;;0.32;0.32;;;19.80;99.90;;;;;;5089262;28;20160;-74
2021/09/01 07:30:52;;;;;;;1.40;1.30;;;20.00;99.90;;;;;;5088543;28;20197;-74
2021/09/01 07:33:18;;;;;;;4.05;1.05;;;20.30;99.90;;;;;;5070617;28;20250;-75
2021/09/01 07:35:45;;;;;;;2.05;1.13;;;19.80;99.90;;;;;;5088462;28;20159;-75
2021/09/01 07:38:12;;;;;;;0.65;0.55;;;20.00;99.90;;;;;;5088409;28;20168;-74
2021/09/01 07:40:38;;;;;;;0.30;0.30;;;19.30;99.90;;;;;;5088314;28;20687;-74
2021/09/01 07:43:04;;;;;;;0.20;0.20;;;19.00;99.90;;;;;;5069339;28;20206;-76
2021/09/01 07:45:30;;;;;;;0.10;0.10;;;19.40;99.90;;;;;;5070211;28;20243;-74
2021/09/01 07:47:57;;;;;;;0.20;0.20;;;19.00;99.90;;;;;;5088373;28;20188;-74
2021/09/01 07:50:28;;;;;;;0.75;0.75;;;18.70;99.90;;;;;;5088532;28;20167;-74
2021/09/01 07:52:54;;;;;;;1.05;0.98;;;18.60;99.90;;;;;;5070088;28;20242;-74
2021/09/01 07:55:21;;;;;;;3.45;0.68;;;18.50;99.90;;;;;;5088355;28;20164;-74
2021/09/01 07:57:48;;;;;;;0.10;0.10;;;18.50;99.90;;;;;;5070240;28;20222;-74
2021/09/01 08:00:14;;;;;;;1.10;0.57;;;18.50;99.90;;;;;;5070399;28;20633;-74
2021/09/01 08:02:40;;;;;;;0.70;0.57;;;18.60;99.90;;;;;;5088412;28;20180;-74
2021/09/01 08:05:07;;;;;;;0.38;0.38;;;18.60;99.90;;;;;;5088427;28;20207;-74
2021/09/01 08:07:34;;;;;;;0.30;0.30;;;18.60;99.90;;;;;;5088262;28;20188;-74
2021/09/01 08:10:00;;;;;;;0.50;0.50;;;18.60;99.90;;;;;;5088502;28;20164;-74
2021/09/01 08:12:26;;;;;;;0.10;0.10;;;18.70;99.90;;;;;;5070829;28;20670;-74
2021/09/01 08:14:52;;;;;;;1.70;1.10;;;19.30;99.90;;;;;;5088850;28;20160;-74
2021/09/01 08:17:18;;;;;;;0.55;0.55;;;19.10;99.90;;;;;;5088566;28;20255;-74
2021/09/01 08:19:46;;;;;;;0.20;0.20;;;19.10;99.90;;;;;;5088070;28;20574;-74
2021/09/01 08:22:12;;;;;;;0.52;0.47;;;19.20;99.90;;;;;;5088248;28;20521;-75
2021/09/01 08:24:39;;;;;;;0.65;0.55;;;19.40;99.90;;;;;;5070124;28;20171;-75
2021/09/01 08:27:07;;;;;;;0.47;0.47;;;19.50;99.90;;;;;;5087930;28;20191;-74
2021/09/01 08:29:33;;;;;;;0.55;0.55;;;19.80;99.90;;;;;;5070078;28;20168;-74
2021/09/01 08:31:59;;;;;;;4.13;0.35;;;19.60;99.90;;;;;;5088125;28;20211;-74
2021/09/01 08:34:26;;;;;;;0.17;0.17;;;19.50;99.90;;;;;;5088288;28;20167;-74
2021/09/01 08:36:51;;;;;;;1.02;0.45;;;19.40;99.90;;;;;;5088157;28;20227;-74
2021/09/01 08:39:18;;;;;;;0.00;0.00;;;19.60;99.90;;;;;;5087932;28;20167;-74
2021/09/01 08:41:45;;;;;;;0.90;0.82;;;19.50;99.90;;;;;;5069956;28;20229;-74
2021/09/01 08:44:11;;;;;;;0.22;0.22;;;19.50;99.90;;;;;;5088031;28;20184;-74
2021/09/01 08:46:38;;;;;;;0.10;0.10;;;19.10;99.90;;;;;;5088090;28;20164;-73
2021/09/01 08:49:05;;;;;;;0.28;0.28;;;19.10;99.90;;;;;;5087951;28;20195;-73
2021/09/01 08:51:31;;;;;;;0.25;0.25;;;18.90;99.90;;;;;;5066187;28;20279;-73
2021/09/01 08:53:58;;;;;;;0.10;0.10;;;19.40;99.90;;;;;;5069601;28;20165;-73
2021/09/01 08:56:26;;;;;;;0.35;0.17;;;19.40;99.90;;;;;;5053623;28;20314;-73
2021/09/01 08:58:52;;;;;;;0.32;0.32;;;19.40;99.90;;;;;;5053664;28;20201;-73
2021/09/01 09:01:46;;;;;;;1.00;0.75;;;19.30;99.90;;;;;;5053536;28;20188;-73
2021/09/01 09:04:20;;;;;;;0.60;0.52;;;19.20;99.90;;;;;;5065114;28;20250;-73
2021/09/01 09:06:50;;;;;;;0.20;0.20;;;19.30;99.90;;;;;;5053199;28;20492;-73
2021/09/01 09:09:22;;;;;;;0.88;0.77;;;19.40;99.90;;;;;;5053184;28;20237;-73
2021/09/01 09:11:49;;;;;;;3.10;0.90;;;19.30;99.90;;;;;;5071291;28;20164;-74
2021/09/01 09:14:20;;;;;;;0.00;0.00;;;19.40;99.90;;;;;;5071412;28;20169;-74
2021/09/01 09:16:46;;;;;;;0.30;0.30;;;19.80;99.90;;;;;;5071179;28;20157;-73
2021/09/01 09:19:14;;;;;;;0.15;0.15;;;20.70;99.90;;;;;;5071401;28;20167;-75
2021/09/01 09:21:40;;;;;;;0.40;0.40;;;20.40;99.90;;;;;;5053268;28;20211;-74
2021/09/01 09:24:21;;;;;;;0.40;0.40;;;20.50;99.90;;;;;;5070555;28;20222;-74
2021/09/01 09:26:47;;;;;;;0.20;0.20;;;20.70;99.90;;;;;;5070977;28;20152;-73
2021/09/01 09:29:18;;;;;;;0.50;0.50;;;20.80;99.90;;;;;;5053018;28;20219;-72
2021/09/01 09:31:57;;;;;;;0.10;0.10;;;20.60;99.90;;;;;;5071258;28;20157;-73
2021/09/01 09:34:42;;;;;;;0.40;0.25;;;20.60;99.90;;;;;;5070916;28;20192;-73
2021/09/01 09:37:13;;;;;;;1.27;0.45;;;20.60;99.90;;;;;;5052917;28;20263;-73
2021/09/01 09:39:45;;;;;;;0.30;0.30;;;21.20;99.90;;;;;;5070740;28;20160;-73
2021/09/01 09:42:12;;;;;;;0.70;0.70;;;20.80;99.90;;;;;;5071003;28;20152;-73
2021/09/01 09:44:38;;;;;;;0.38;0.38;;;20.80;99.90;;;;;;5070809;28;20529;-73
2021/09/01 09:47:04;;;;;;;0.57;0.22;;;21.20;99.90;;;;;;5070757;28;20184;-73
2021/09/01 09:49:33;;;;;;;0.90;0.90;;;21.40;99.90;;;;;;5075274;28;20180;-73
2021/09/01 09:51:59;;;;;;;0.68;0.68;;;21.30;99.90;;;;;;5103280;28;20745;-73
2021/09/01 09:54:26;;;;;;;0.57;0.35;;;20.70;99.90;;;;;;5092354;28;20182;-73
2021/09/01 09:57:11;;;;;;;0.45;0.30;;;21.00;99.90;;;;;;5110925;28;20174;-73
2021/09/01 09:59:37;;;;;;;0.32;0.32;;;22.00;99.90;;;;;;5110752;28;20163;-73
2021/09/01 10:02:03;;;;;;;0.68;0.68;;;22.60;99.90;;;;;;5110215;28;20584;-74
2021/09/01 10:04:30;;;;;;;0.57;0.57;;;21.30;99.90;;;;;;5091718;28;20171;-72
2021/09/01 10:06:56;;;;;;;0.47;0.47;;;21.60;99.90;;;;;;5109893;28;20181;-73
2021/09/01 10:09:24;;;;;;;0.70;0.70;;;22.20;99.90;;;;;;5110554;28;20190;-73
2021/09/01 10:11:50;;;;;;;0.38;0.32;;;22.30;99.90;;;;;;5110042;28;20154;-73
2021/09/01 10:14:24;;;;;;;0.30;0.30;;;24.20;99.90;;;;;;5091715;28;20705;-73
2021/09/01 10:17:05;;;;;;;0.30;0.30;;;23.10;99.90;;;;;;5092412;28;20171;-73
2021/09/01 10:19:34;;;;;;;0.13;0.13;;;23.00;99.90;;;;;;5110422;28;20162;-74
2021/09/01 10:22:04;;;;;;;0.65;0.65;;;22.00;99.90;;;;;;5109734;28;20143;-73
2021/09/01 10:24:36;;;;;;;2.10;0.30;;;22.80;99.90;;;;;;5110479;28;20185;-74
2021/09/01 10:27:09;;;;;;;0.20;0.20;;;22.80;99.90;;;;;;5092028;28;20162;-74
2021/09/01 10:29:44;;;;;;;0.20;0.20;;;23.40;99.90;;;;;;5110269;28;20159;-74
2021/09/01 10:32:17;;;;;;;2.05;0.57;;;23.40;99.90;;;;;;5109300;28;20166;-73
2021/09/01 10:34:43;;;;;;;0.15;0.15;;;22.70;99.90;;;;;;5110137;28;20190;-72
2021/09/01 10:37:09;;;;;;;0.38;0.28;;;23.20;99.90;;;;;;5109885;28;20151;-73
2021/09/01 10:39:37;;;;;;;0.50;0.30;;;23.70;99.90;;;;;;5091606;28;20611;-73
2021/09/01 10:42:33;;;;;;;0.35;0.35;;;22.80;99.90;;;;;;5090494;28;20494;-73
2021/09/01 10:44:59;;;;;;;0.60;0.60;;;22.70;99.90;;;;;;5109902;28;20202;-73
2021/09/01 10:47:25;;;;;;;0.40;0.40;;;23.20;99.90;;;;;;5109945;28;20159;-73
2021/09/01 10:49:54;;;;;;;0.65;0.65;;;22.10;99.90;;;;;;5109743;28;20163;-73
2021/09/01 10:52:19;;;;;;;0.40;0.40;;;22.30;99.90;;;;;;5109556;28;20782;-73
2021/09/01 10:54:48;;;;;;;0.22;0.22;;;22.20;99.90;;;;;;5088166;28;20289;-72
2021/09/01 10:57:25;;;;;;;0.85;0.85;;;22.10;99.90;;;;;;5088475;28;20170;-72
2021/09/01 10:59:51;;;;;;;0.22;0.22;;;21.00;99.90;;;;;;5085919;28;20182;-72
2021/09/01 11:02:20;;;;;;;0.10;0.10;;;20.60;99.90;;;;;;5098150;28;20243;-72
2021/09/01 11:04:58;;;;;;;1.35;0.68;;;20.90;99.90;;;;;;5071363;28;20266;-72
2021/09/01 11:07:25;;;;;;;1.20;0.47;;;22.30;99.90;;;;;;5089202;28;20167;-72
2021/09/01 11:09:56;;;;;;;0.22;0.22;;;21.20;99.90;;;;;;5093516;28;20172;-72
2021/09/01 11:12:23;;;;;;;0.47;0.38;;;20.40;99.90;;;;;;5089263;28;20175;-71
2021/09/01 11:14:50;;;;;;;0.38;0.20;;;20.30;99.90;;;;;;5071094;28;20187;-72
2021/09/01 11:17:22;;;;;;;0.20;0.20;;;21.00;99.90;;;;;;5089068;28;20148;-72
2021/09/01 11:19:53;;;;;;;0.10;0.10;;;20.50;99.90;;;;;;5088964;28;20183;-72
2021/09/01 11:22:26;;;;;;;0.03;0.03;;;20.90;99.90;;;;;;5070647;28;20175;-72
2021/09/01 11:25:05;;;;;;;0.13;0.13;;;21.00;99.90;;;;;;5070517;28;20222;-72
2021/09/01 11:27:33;;;;;;;0.47;0.47;;;21.40;99.90;;;;;;5070522;28;20166;-72
2021/09/01 11:30:08;;;;;;;0.20;0.20;;;20.80;99.90;;;;;;5079838;28;20179;-73
2021/09/01 11:32:35;;;;;;;0.25;0.22;;;20.50;99.90;;;;;;5109155;28;20216;-72
2021/09/01 11:35:04;;;;;;;0.77;0.77;;;20.20;99.90;;;;;;5108972;28;20233;-72
2021/09/01 11:37:30;;;;;;;0.60;0.55;;;20.90;99.90;;;;;;5108910;28;20185;-72
2021/09/01 11:39:56;;;;;;;0.30;0.30;;;22.20;99.90;;;;;;5090781;28;20169;-73
2021/09/01 11:42:22;;;;;;;0.68;0.38;;;22.70;99.90;;;;;;5090604;28;20158;-74
2021/09/01 11:44:58;;;;;;;0.43;0.43;;;21.60;99.90;;;;;;5090614;28;20198;-74
2021/09/01 11:47:26;;;;;;;1.15;1.08;;;21.30;99.90;;;;;;5109001;28;20184;-72
2021/09/01 11:49:53;;;;;;;1.45;0.77;;;21.40;99.90;;;;;;5108845;28;20201;-72
2021/09/01 11:52:30;;;;;;;0.50;0.40;;;21.70;99.90;;;;;;5108879;28;20297;-72
2021/09/01 11:54:57;;;;;;;0.40;0.40;;;22.50;99.90;;;;;;5090503;28;20670;-72
2021/09/01 11:57:30;;;;;;;0.47;0.30;;;22.70;99.90;;;;;;5108965;28;20154;-71
2021/09/01 12:00:07;;;;;;;1.15;0.57;;;22.00;99.90;;;;;;5090240;28;20266;-71
2021/09/01 12:02:34;;;;;;;0.20;0.20;;;22.20;99.90;;;;;;5108559;28;20258;-71
2021/09/01 12:05:00;;;;;;;1.27;0.77;;;22.40;99.90;;;;;;5108372;28;20234;-74
2021/09/01 12:07:30;;;;;;;0.10;0.10;;;22.60;99.90;;;;;;5108467;28;20186;-73
2021/09/01 12:09:58;;;;;;;0.03;0.03;;;22.40;99.90;;;;;;5090174;28;20220;-71
2021/09/01 12:12:32;;;;;;;0.32;0.32;;;23.60;99.90;;;;;;5090341;28;20199;-72
2021/09/01 12:15:16;;;;;;;0.55;0.55;;;23.30;99.90;;;;;;5108534;28;20197;-71
2021/09/01 12:17:58;;;;;;;1.75;1.27;;;22.30;99.90;;;;;;5083008;28;20218;-71
2021/09/01 12:20:25;;;;;;;0.40;0.40;;;22.10;99.90;;;;;;5087652;28;20155;-71
2021/09/01 12:22:51;;;;;;;0.63;0.63;;;21.10;99.90;;;;;;5088176;28;20191;-70
2021/09/01 12:25:22;;;;;;;0.32;0.22;;;20.50;99.90;;;;;;5088485;28;20532;-71
2021/09/01 12:28:03;;;;;;;0.75;0.75;;;20.50;99.90;;;;;;5088258;28;20194;-71
2021/09/01 12:30:32;;;;;;;0.20;0.20;;;21.20;99.90;;;;;;5090407;28;20185;-73
2021/09/01 12:33:13;;;;;;;0.35;0.35;;;21.40;99.90;;;;;;5110550;28;20170;-71
2021/09/01 12:35:40;;;;;;;0.68;0.68;;;21.70;99.90;;;;;;5085693;28;20182;-71
2021/09/01 12:38:07;;;;;;;0.52;0.32;;;21.30;99.90;;;;;;5112069;28;20597;-71
2021/09/01 12:40:38;;;;;;;3.83;1.30;;;21.10;99.90;;;;;;5112317;28;20186;-71
2021/09/01 12:43:11;;;;;;;0.85;0.60;;;20.80;99.90;;;;;;5112264;28;20275;-72
2021/09/01 12:45:39;;;;;;;0.10;0.10;;;20.90;99.90;;;;;;5112257;28;20159;-72
2021/09/01 12:48:08;;;;;;;0.25;0.25;;;21.30;99.90;;;;;;5093229;28;20171;-73
2021/09/01 12:50:44;;;;;;;0.63;0.55;;;21.00;99.90;;;;;;5112087;28;20162;-72